Hlavní strana
METAR-TAF:

METAR-TAF

Letiště :

Oděsa, Ukrajina

Mezinárodní letiště Oděsa

zeměpisná šířka: 46-26N, zeměpisná délka: 030-46E, výška: 42 m

Aktuální stav počasí

Zpráva byla vytvořena před 23 minutami, v 09:00 UTC
Severní vítr 8 kt, proměnlivý mezi severozápadním a severoseverovýchodním
Teplota -5°C
Vlhkost vzduchu 68%
Tlak 1035 hPa
Viditelnost 10 km a více
Žádná oblačnost pod 1500 m, nevyskytují se cumulonimby.

METAR: UKOO 240900Z 35004MPS 310V030 CAVOK M05/M10 Q1035 R34/410256 NOSIG

Čas: 11:23 (09:23 UTC)

Předpověď počasí

Zpráva byla vytvořena před 4 hodinami a 13 minutami, v 05:10 UTC
Předpověď platná od 24 v 06 UTC do 25 v 06 UTC
Severní vítr 12 kt s nárazy do 25 kt
Viditelnost: 6000 m
Oblačno až skoro zataženo ve výšce 700 ft
Změna
od 24 v 16 UTC do 24 v 17 UTC
Severoseverovýchodní vítr 6 kt
Viditelnost: 2100 m
kouřmo

TAF: UKOO 240510Z 2406/2506 36006G13MPS 6000 BKN007 BECMG 2416/2417 03003MPS 2100 BR TXM04/2412Z TNM10/2504Z

Stav a předpovědi počasí z více než 4 000 letišť (zprávy METAR a TAF).

Červené a žluté tečky na mapě představují dostupné meteorologické stanice.

Když kurzor umístíte na tečku, zobrazí se název stanice.

Pak kliknutím zobrazíte stav a předpověď počasí.

Chcete-li změnit mapu, kliknutím na zelené tlačítko se znaménkem +mapu přiblížíte, kliknutím na zelené tlačítko se znaménkem – mapu oddálíte a kliknutím na zelené šipky přejdete na sousední mapy.


METAR-TAF: